createdAt,value
2018-10-03T00:01:29.072Z,100857.00
2018-10-03T00:03:57.304Z,100851.00
2018-10-03T00:06:25.478Z,100857.00
2018-10-03T00:08:53.760Z,100848.00
2018-10-03T00:11:21.914Z,100838.00
2018-10-03T00:13:50.085Z,100844.00
2018-10-03T00:16:18.208Z,100829.00
2018-10-03T00:18:46.432Z,100834.00
2018-10-03T00:21:14.580Z,100830.00
2018-10-03T00:23:42.846Z,100837.00
2018-10-03T00:26:11.712Z,100851.00
2018-10-03T00:28:40.683Z,100852.00
2018-10-03T00:31:08.858Z,100850.00
2018-10-03T00:33:37.116Z,100856.00
2018-10-03T00:36:05.425Z,100852.00
2018-10-03T00:38:33.631Z,100859.00
2018-10-03T00:41:01.809Z,100866.00
2018-10-03T00:43:30.022Z,100861.00
2018-10-03T00:45:58.191Z,100863.00
2018-10-03T00:48:26.388Z,100869.00
2018-10-03T00:50:54.546Z,100863.00
2018-10-03T00:53:22.730Z,100865.00
2018-10-03T00:55:50.870Z,100866.00
2018-10-03T00:58:19.070Z,100863.00
2018-10-03T01:00:47.280Z,100860.00
2018-10-03T01:03:15.906Z,100845.00
2018-10-03T01:05:44.524Z,100851.00
2018-10-03T01:08:12.791Z,100860.00
2018-10-03T01:10:41.015Z,100852.00
2018-10-03T01:13:09.230Z,100857.00
2018-10-03T01:15:37.347Z,100861.00
2018-10-03T01:18:05.584Z,100848.00
2018-10-03T01:20:33.770Z,100856.00
2018-10-03T01:23:01.950Z,100848.00
2018-10-03T01:25:30.271Z,100850.00
2018-10-03T01:27:58.476Z,100855.00
2018-10-03T01:30:26.631Z,100846.00
2018-10-03T01:32:54.860Z,100847.00
2018-10-03T01:35:23.036Z,100850.00
2018-10-03T01:37:51.356Z,100856.00
2018-10-03T01:40:19.533Z,100852.00
2018-10-03T01:42:47.849Z,100858.00
2018-10-03T01:45:16.152Z,100858.00
2018-10-03T01:47:44.297Z,100861.00
2018-10-03T01:50:12.542Z,100860.00
2018-10-03T01:52:40.732Z,100859.00
2018-10-03T01:55:09.016Z,100869.00
2018-10-03T01:57:37.372Z,100881.00
2018-10-03T02:00:05.693Z,100868.00
2018-10-03T02:02:33.930Z,100870.00
2018-10-03T02:05:02.085Z,100869.00
2018-10-03T02:07:30.355Z,100889.00
2018-10-03T02:09:58.539Z,100877.00
2018-10-03T02:12:26.816Z,100878.00
2018-10-03T02:14:55.097Z,100875.00
2018-10-03T02:17:23.340Z,100873.00
2018-10-03T02:19:51.545Z,100875.00
2018-10-03T02:22:19.822Z,100865.00
2018-10-03T02:24:48.121Z,100860.00
2018-10-03T02:27:16.404Z,100858.00
2018-10-03T02:29:44.651Z,100869.00
2018-10-03T02:32:13.028Z,100865.00
2018-10-03T02:34:41.242Z,100870.00
2018-10-03T02:37:09.594Z,100863.00
2018-10-03T02:39:37.810Z,100865.00
2018-10-03T02:42:06.074Z,100863.00
2018-10-03T02:44:34.256Z,100872.00
2018-10-03T02:47:02.484Z,100874.00
2018-10-03T02:49:30.703Z,100865.00
2018-10-03T02:51:58.988Z,100875.00
2018-10-03T02:54:27.377Z,100875.00
2018-10-03T02:56:55.719Z,100872.00
2018-10-03T02:59:23.999Z,100871.00
2018-10-03T03:01:52.352Z,100875.00
2018-10-03T03:04:20.537Z,100876.00
2018-10-03T03:06:48.830Z,100871.00
2018-10-03T03:09:17.071Z,100879.00
2018-10-03T03:11:45.315Z,100900.00
2018-10-03T03:14:13.496Z,100886.00
2018-10-03T03:16:41.681Z,100883.00
2018-10-03T03:19:10.062Z,100884.00
2018-10-03T03:21:38.269Z,100888.00
2018-10-03T03:24:06.575Z,100887.00
2018-10-03T03:26:34.782Z,100890.00
2018-10-03T03:29:02.983Z,100897.00
2018-10-03T03:31:31.246Z,100901.00
2018-10-03T03:33:59.448Z,100903.00
2018-10-03T03:36:27.702Z,100902.00
2018-10-03T03:38:55.933Z,100910.00
2018-10-03T03:41:24.184Z,100915.00
2018-10-03T03:43:52.439Z,100913.00
2018-10-03T03:46:20.678Z,100919.00
2018-10-03T03:48:48.903Z,100918.00
2018-10-03T03:51:17.216Z,100918.00
2018-10-03T03:53:45.464Z,100922.00
2018-10-03T03:56:13.706Z,100923.00
2018-10-03T03:58:41.867Z,100930.00
2018-10-03T04:01:10.067Z,100939.00
2018-10-03T04:03:38.334Z,100943.00
2018-10-03T04:06:06.491Z,100929.00
2018-10-03T04:08:34.744Z,100927.00
2018-10-03T04:11:02.973Z,100924.00
2018-10-03T04:13:31.208Z,100933.00
2018-10-03T04:15:59.523Z,100933.00
2018-10-03T04:18:27.842Z,100942.00
2018-10-03T04:20:56.121Z,100944.00
2018-10-03T04:23:24.553Z,100949.00
2018-10-03T04:25:52.779Z,100957.00
2018-10-03T04:28:20.979Z,100962.00
2018-10-03T04:30:49.242Z,100943.00
2018-10-03T04:33:17.458Z,100944.00
2018-10-03T04:35:45.802Z,100934.00
2018-10-03T04:38:14.054Z,100940.00
2018-10-03T04:40:42.187Z,100943.00
2018-10-03T04:43:10.357Z,100941.00
2018-10-03T04:45:38.674Z,100948.00
2018-10-03T04:48:06.857Z,100944.00
2018-10-03T04:50:35.059Z,100943.00
2018-10-03T04:53:03.304Z,100948.00
2018-10-03T04:55:31.581Z,100941.00
2018-10-03T04:57:59.856Z,100944.00
2018-10-03T05:00:28.448Z,100950.00
2018-10-03T05:02:56.675Z,100955.00
2018-10-03T05:05:24.904Z,100957.00
2018-10-03T05:07:53.084Z,100957.00
2018-10-03T05:10:21.263Z,100967.00
2018-10-03T05:12:49.509Z,100964.00
2018-10-03T05:15:17.758Z,100972.00
2018-10-03T05:17:45.903Z,100980.00
2018-10-03T05:20:14.147Z,100985.00
2018-10-03T05:22:42.711Z,100976.00
2018-10-03T05:25:10.880Z,100982.00
2018-10-03T05:27:39.145Z,100979.00
2018-10-03T05:30:07.314Z,100983.00
2018-10-03T05:32:35.507Z,101003.00
2018-10-03T05:35:04.050Z,101001.00
2018-10-03T05:37:32.346Z,101004.00
2018-10-03T05:40:00.576Z,101018.00
2018-10-03T05:42:29.007Z,101017.00
2018-10-03T05:44:57.181Z,101021.00
2018-10-03T05:47:25.466Z,101023.00
2018-10-03T05:49:53.641Z,101034.00
2018-10-03T05:52:21.846Z,101026.00
2018-10-03T05:54:50.073Z,101033.00
2018-10-03T05:57:18.371Z,101036.00
2018-10-03T05:59:46.583Z,101036.00
2018-10-03T06:02:14.828Z,101044.00
2018-10-03T06:04:43.051Z,101052.00
2018-10-03T06:07:11.296Z,101065.00
2018-10-03T06:09:39.569Z,101067.00
2018-10-03T06:12:07.915Z,101079.00
2018-10-03T06:14:36.399Z,101073.00
2018-10-03T06:17:04.705Z,101067.00
2018-10-03T06:19:32.982Z,101077.00
2018-10-03T06:22:01.331Z,101070.00
2018-10-03T06:24:29.492Z,101069.00
2018-10-03T06:26:57.769Z,101077.00
2018-10-03T06:29:26.224Z,101090.00
2018-10-03T06:31:54.527Z,101089.00
2018-10-03T06:34:22.817Z,101086.00
2018-10-03T06:36:51.100Z,101099.00
2018-10-03T06:39:19.328Z,101094.00
2018-10-03T06:41:47.601Z,101091.00
2018-10-03T06:44:15.825Z,101094.00
2018-10-03T06:46:44.117Z,101095.00
2018-10-03T06:49:12.669Z,101120.00
2018-10-03T06:51:40.889Z,101103.00
2018-10-03T06:54:09.262Z,101109.00
2018-10-03T06:56:37.469Z,101115.00
2018-10-03T06:59:05.823Z,101110.00
2018-10-03T07:01:34.050Z,101114.00
2018-10-03T07:04:02.380Z,101108.00
2018-10-03T07:06:30.756Z,101112.00
2018-10-03T07:08:59.145Z,101109.00
2018-10-03T07:11:27.522Z,101111.00
2018-10-03T07:13:55.717Z,101121.00
2018-10-03T07:16:24.109Z,101120.00
2018-10-03T07:18:52.947Z,101123.00
2018-10-03T07:21:21.239Z,101121.00
2018-10-03T07:23:49.502Z,101128.00
2018-10-03T07:26:18.117Z,101133.00
2018-10-03T07:28:46.377Z,101146.00
2018-10-03T07:31:14.793Z,101140.00
2018-10-03T07:33:43.199Z,101152.00
2018-10-03T07:36:11.613Z,101148.00
2018-10-03T07:38:39.925Z,101146.00
2018-10-03T07:41:08.236Z,101148.00
2018-10-03T07:43:36.505Z,101153.00
2018-10-03T07:46:04.841Z,101156.00
2018-10-03T07:48:33.157Z,101153.00
2018-10-03T07:51:01.482Z,101151.00
2018-10-03T07:53:31.162Z,101151.00
2018-10-03T07:55:59.777Z,101146.00
2018-10-03T07:58:28.232Z,101154.00
2018-10-03T08:00:56.594Z,101151.00
2018-10-03T08:03:27.963Z,101163.00
2018-10-03T08:05:56.313Z,101159.00
2018-10-03T08:08:24.586Z,101157.00
2018-10-03T08:10:52.855Z,101156.00
2018-10-03T08:13:21.186Z,101164.00
2018-10-03T08:15:49.506Z,101167.00
2018-10-03T08:18:18.571Z,101162.00
2018-10-03T08:20:46.914Z,101171.00
2018-10-03T08:23:15.181Z,101184.00
2018-10-03T08:25:43.521Z,101181.00
2018-10-03T08:28:11.774Z,101172.00
2018-10-03T08:30:40.158Z,101189.00
2018-10-03T08:33:08.454Z,101188.00
2018-10-03T08:35:36.690Z,101198.00
2018-10-03T08:38:04.983Z,101198.00
2018-10-03T08:40:33.332Z,101213.00
2018-10-03T08:43:01.810Z,101207.00
2018-10-03T08:45:30.241Z,101210.00
2018-10-03T08:47:58.547Z,101218.00
2018-10-03T08:50:26.891Z,101223.00
2018-10-03T08:52:55.226Z,101227.00
2018-10-03T08:55:23.535Z,101243.00
2018-10-03T08:57:51.912Z,101241.00
2018-10-03T09:00:20.288Z,101251.00
2018-10-03T09:02:48.551Z,101257.00
2018-10-03T09:05:16.874Z,101258.00
2018-10-03T09:07:45.326Z,101258.00
2018-10-03T09:10:13.563Z,101260.00
2018-10-03T09:12:42.895Z,101258.00
2018-10-03T09:15:11.149Z,101259.00
2018-10-03T09:17:39.539Z,101262.00
2018-10-03T09:20:08.004Z,101273.00
2018-10-03T09:22:36.385Z,101276.00
2018-10-03T09:25:05.099Z,101268.00
2018-10-03T09:27:34.103Z,101285.00
2018-10-03T09:30:02.642Z,101279.00
2018-10-03T09:32:31.217Z,101280.00
2018-10-03T09:34:59.520Z,101291.00
2018-10-03T09:37:29.070Z,101294.00
2018-10-03T09:39:57.600Z,101293.00
2018-10-03T09:42:26.100Z,101300.00
2018-10-03T09:44:54.481Z,101303.00
2018-10-03T09:47:22.839Z,101301.00
2018-10-03T09:49:51.284Z,101318.00
2018-10-03T09:52:19.835Z,101304.00
2018-10-03T09:54:48.272Z,101306.00
2018-10-03T09:57:16.700Z,101305.00
2018-10-03T09:59:45.496Z,101306.00
2018-10-03T10:02:14.008Z,101301.00
2018-10-03T10:04:42.513Z,101306.00
2018-10-03T10:07:11.128Z,101296.00
2018-10-03T10:09:39.683Z,101321.00
2018-10-03T10:12:07.935Z,101318.00
2018-10-03T10:14:36.365Z,101314.00
2018-10-03T10:17:04.694Z,101317.00
2018-10-03T10:19:33.154Z,101313.00
2018-10-03T10:22:02.365Z,101325.00
2018-10-03T10:24:30.757Z,101312.00
2018-10-03T10:26:59.169Z,101325.00
2018-10-03T10:29:27.584Z,101321.00
2018-10-03T10:31:56.370Z,101327.00
2018-10-03T10:34:25.005Z,101317.00
2018-10-03T10:36:54.891Z,101331.00
2018-10-03T10:39:23.491Z,101341.00
2018-10-03T10:41:52.063Z,101346.00
2018-10-03T10:44:21.828Z,101351.00
2018-10-03T10:46:50.630Z,101348.00
2018-10-03T10:49:18.885Z,101351.00
2018-10-03T10:51:47.882Z,101360.00
2018-10-03T10:54:16.409Z,101346.00
2018-10-03T10:56:46.362Z,101343.00
2018-10-03T10:59:15.474Z,101339.00
2018-10-03T11:01:44.880Z,101332.00
2018-10-03T11:04:13.907Z,101336.00
2018-10-03T11:06:42.547Z,101347.00
2018-10-03T11:09:11.250Z,101338.00
2018-10-03T11:11:40.650Z,101357.00
2018-10-03T11:14:09.140Z,101324.00
2018-10-03T11:16:37.731Z,101348.00
2018-10-03T11:19:06.201Z,101355.00
2018-10-03T11:24:10.410Z,101352.00
2018-10-03T11:26:38.764Z,101361.00
2018-10-03T11:29:07.356Z,101358.00
2018-10-03T11:31:36.555Z,101356.00
2018-10-03T11:34:05.138Z,101352.00
2018-10-03T11:36:33.622Z,101365.00
2018-10-03T11:39:02.778Z,101359.00
2018-10-03T11:41:31.404Z,101360.00
2018-10-03T11:43:59.912Z,101365.00
2018-10-03T11:46:28.201Z,101363.00
2018-10-03T11:48:56.648Z,101364.00
2018-10-03T11:51:26.323Z,101362.00
2018-10-03T11:53:55.018Z,101368.00
2018-10-03T11:56:23.434Z,101361.00
2018-10-03T11:58:51.900Z,101362.00
2018-10-03T12:01:20.374Z,101358.00
2018-10-03T12:03:48.859Z,101350.00
2018-10-03T12:06:17.238Z,101347.00
2018-10-03T12:08:45.713Z,101348.00
2018-10-03T12:11:14.223Z,101345.00
2018-10-03T12:13:42.643Z,101341.00
2018-10-03T12:16:11.046Z,101345.00
2018-10-03T12:18:39.581Z,101338.00
2018-10-03T12:21:07.993Z,101334.00
2018-10-03T12:23:36.495Z,101338.00
2018-10-03T12:26:04.923Z,101337.00
2018-10-03T12:28:33.612Z,101339.00
2018-10-03T12:31:02.019Z,101337.00
2018-10-03T12:33:30.638Z,101342.00
2018-10-03T12:35:59.046Z,101350.00
2018-10-03T12:38:27.539Z,101347.00
2018-10-03T12:40:59.150Z,101339.00
2018-10-03T12:43:27.937Z,101339.00
2018-10-03T12:45:56.324Z,101339.00
2018-10-03T12:48:24.674Z,101338.00
2018-10-03T12:50:52.924Z,101335.00
2018-10-03T12:53:22.197Z,101344.00
2018-10-03T12:55:50.641Z,101334.00
2018-10-03T12:58:19.044Z,101351.00
2018-10-03T13:00:47.337Z,101346.00
2018-10-03T13:03:15.733Z,101358.00
2018-10-03T13:05:44.251Z,101356.00
2018-10-03T13:08:12.728Z,101365.00
2018-10-03T13:10:41.103Z,101366.00
2018-10-03T13:13:09.521Z,101363.00
2018-10-03T13:15:38.056Z,101370.00
2018-10-03T13:18:06.530Z,101359.00
2018-10-03T13:20:35.082Z,101357.00
2018-10-03T13:23:03.371Z,101364.00
2018-10-03T13:25:31.765Z,101366.00
2018-10-03T13:28:00.456Z,101372.00
2018-10-03T13:30:29.020Z,101359.00
2018-10-03T13:32:57.351Z,101359.00
2018-10-03T13:35:25.667Z,101356.00
2018-10-03T13:37:54.097Z,101344.00
2018-10-03T13:40:22.461Z,101349.00
2018-10-03T13:42:50.846Z,101348.00
2018-10-03T13:45:19.233Z,101347.00
2018-10-03T13:47:47.752Z,101357.00
2018-10-03T13:50:16.079Z,101357.00
2018-10-03T13:52:44.430Z,101350.00
2018-10-03T13:55:12.876Z,101357.00
2018-10-03T13:57:41.298Z,101355.00
2018-10-03T14:00:10.013Z,101356.00
2018-10-03T14:02:38.485Z,101361.00
2018-10-03T14:05:06.945Z,101360.00
2018-10-03T14:07:36.491Z,101366.00
2018-10-03T14:10:05.901Z,101360.00
2018-10-03T14:12:36.508Z,101368.00
2018-10-03T14:15:05.211Z,101361.00
2018-10-03T14:17:33.689Z,101361.00
2018-10-03T14:20:02.085Z,101359.00
2018-10-03T14:22:30.505Z,101363.00
2018-10-03T14:24:59.051Z,101360.00
2018-10-03T14:27:27.532Z,101362.00
2018-10-03T14:29:56.089Z,101367.00
2018-10-03T14:32:24.666Z,101369.00
2018-10-03T14:34:53.280Z,101364.00
2018-10-03T14:37:23.765Z,101360.00
2018-10-03T14:39:53.089Z,101367.00
2018-10-03T14:42:21.588Z,101373.00
2018-10-03T14:44:50.102Z,101376.00
2018-10-03T14:47:18.443Z,101381.00
2018-10-03T14:49:47.013Z,101375.00
2018-10-03T14:52:17.114Z,101383.00
2018-10-03T14:54:45.565Z,101377.00
2018-10-03T14:57:14.044Z,101376.00
2018-10-03T14:59:42.391Z,101382.00
2018-10-03T15:02:10.900Z,101384.00
2018-10-03T15:04:39.354Z,101332.00
2018-10-03T15:07:07.741Z,101394.00
2018-10-03T15:09:36.112Z,101391.00
2018-10-03T15:12:04.738Z,101381.00
2018-10-03T15:14:33.153Z,101394.00
2018-10-03T15:17:01.607Z,101395.00
2018-10-03T15:19:30.002Z,101392.00
2018-10-03T15:21:58.519Z,101395.00
2018-10-03T15:24:27.064Z,101402.00
2018-10-03T15:26:55.693Z,101402.00
2018-10-03T15:29:24.173Z,101408.00
2018-10-03T15:31:52.636Z,101402.00
2018-10-03T15:34:21.192Z,101407.00
2018-10-03T15:36:49.652Z,101411.00
2018-10-03T15:39:18.132Z,101412.00
2018-10-03T15:41:46.562Z,101409.00
2018-10-03T15:44:14.982Z,101419.00
2018-10-03T15:46:43.410Z,101412.00
2018-10-03T15:49:11.836Z,101416.00
2018-10-03T15:51:40.238Z,101420.00
2018-10-03T15:54:08.650Z,101418.00
2018-10-03T15:56:37.069Z,101414.00
2018-10-03T15:59:05.533Z,101424.00
2018-10-03T16:01:34.031Z,101423.00
2018-10-03T16:04:02.525Z,101421.00
2018-10-03T16:06:30.881Z,101422.00
2018-10-03T16:08:59.429Z,101418.00
2018-10-03T16:11:27.828Z,101420.00
2018-10-03T16:13:56.779Z,101428.00
2018-10-03T16:16:25.306Z,101429.00
2018-10-03T16:18:53.803Z,101436.00
2018-10-03T16:21:22.158Z,101439.00
2018-10-03T16:23:50.619Z,101447.00
2018-10-03T16:26:19.108Z,101438.00
2018-10-03T16:28:47.522Z,101444.00
2018-10-03T16:31:16.044Z,101431.00
2018-10-03T16:33:44.565Z,101446.00
2018-10-03T16:36:13.068Z,101453.00
2018-10-03T16:38:41.476Z,101447.00
2018-10-03T16:41:09.923Z,101453.00
2018-10-03T16:43:38.309Z,101456.00
2018-10-03T16:46:07.820Z,101446.00
2018-10-03T16:48:36.356Z,101450.00
2018-10-03T16:51:04.787Z,101453.00
2018-10-03T16:53:33.535Z,101461.00
2018-10-03T16:56:02.191Z,101460.00
2018-10-03T16:58:30.624Z,101454.00
2018-10-03T17:00:59.372Z,101466.00
2018-10-03T17:03:27.836Z,101464.00
2018-10-03T17:05:56.445Z,101455.00
2018-10-03T17:08:24.928Z,101472.00
2018-10-03T17:10:53.460Z,101466.00
2018-10-03T17:13:21.926Z,101479.00
2018-10-03T17:15:50.910Z,101485.00
2018-10-03T17:18:19.372Z,101482.00
2018-10-03T17:20:47.956Z,101485.00
2018-10-03T17:23:16.453Z,101493.00
2018-10-03T17:25:44.953Z,101486.00
2018-10-03T17:28:13.409Z,101490.00
2018-10-03T17:30:41.920Z,101495.00
2018-10-03T17:33:10.438Z,101496.00
2018-10-03T17:35:38.856Z,101498.00
2018-10-03T17:38:07.468Z,101504.00
2018-10-03T17:40:35.964Z,101511.00
2018-10-03T17:43:04.560Z,101506.00
2018-10-03T17:45:33.011Z,101510.00
2018-10-03T17:48:01.667Z,101510.00
2018-10-03T17:50:30.107Z,101520.00
2018-10-03T17:52:59.496Z,101515.00
2018-10-03T17:55:27.983Z,101526.00
2018-10-03T17:57:56.660Z,101514.00
2018-10-03T18:00:25.181Z,101533.00
2018-10-03T18:02:53.691Z,101525.00
2018-10-03T18:05:22.090Z,101538.00
2018-10-03T18:07:50.693Z,101545.00
2018-10-03T18:10:19.211Z,101545.00
2018-10-03T18:12:47.713Z,101551.00
2018-10-03T18:15:16.369Z,101554.00
2018-10-03T18:17:45.983Z,101552.00
2018-10-03T18:20:14.636Z,101559.00
2018-10-03T18:22:43.231Z,101559.00
2018-10-03T18:25:11.776Z,101560.00
2018-10-03T18:27:40.381Z,101558.00
2018-10-03T18:30:09.079Z,101559.00
2018-10-03T18:32:37.682Z,101556.00
2018-10-03T18:35:06.440Z,101562.00
2018-10-03T18:37:35.855Z,101562.00
2018-10-03T18:40:05.213Z,101558.00
2018-10-03T18:42:35.114Z,101559.00
2018-10-03T18:45:05.239Z,101559.00
2018-10-03T18:47:33.979Z,101560.00
2018-10-03T18:50:04.447Z,101555.00
2018-10-03T18:52:33.755Z,101561.00
2018-10-03T18:55:04.708Z,101563.00
2018-10-03T18:57:33.573Z,101562.00
2018-10-03T19:00:02.707Z,101563.00
2018-10-03T19:02:31.384Z,101547.00
2018-10-03T19:05:00.553Z,101552.00
2018-10-03T19:07:29.564Z,101564.00
2018-10-03T19:09:58.833Z,101567.00
2018-10-03T19:12:27.887Z,101561.00
2018-10-03T19:14:57.261Z,101560.00
2018-10-03T19:17:26.099Z,101559.00
2018-10-03T19:19:55.003Z,101568.00
2018-10-03T19:22:23.815Z,101573.00
2018-10-03T19:24:53.056Z,101566.00
2018-10-03T19:27:22.350Z,101568.00
2018-10-03T19:29:51.346Z,101569.00
2018-10-03T19:32:20.153Z,101571.00
2018-10-03T19:34:49.033Z,101579.00
2018-10-03T19:37:17.982Z,101578.00
2018-10-03T19:39:46.718Z,101582.00
2018-10-03T19:42:15.725Z,101573.00
2018-10-03T19:44:44.480Z,101577.00
2018-10-03T19:47:13.708Z,101570.00
2018-10-03T19:49:42.925Z,101586.00
2018-10-03T19:52:11.407Z,101576.00
2018-10-03T19:54:39.875Z,101582.00
2018-10-03T19:57:08.362Z,101578.00
2018-10-03T19:59:37.010Z,101577.00
2018-10-03T20:02:05.390Z,101575.00
2018-10-03T20:04:34.772Z,101586.00
2018-10-03T20:07:03.279Z,101577.00
2018-10-03T20:09:31.875Z,101582.00
2018-10-03T20:12:00.510Z,101589.00
2018-10-03T20:14:29.242Z,101581.00
2018-10-03T20:16:58.409Z,101579.00
2018-10-03T20:19:26.912Z,101584.00
2018-10-03T20:21:55.453Z,101587.00
2018-10-03T20:24:23.936Z,101579.00
2018-10-03T20:26:53.057Z,101587.00
2018-10-03T20:29:21.960Z,101589.00
2018-10-03T20:31:50.411Z,101597.00
2018-10-03T20:34:27.037Z,101596.00
2018-10-03T20:36:55.665Z,101595.00
2018-10-03T20:39:24.178Z,101604.00
2018-10-03T20:41:52.637Z,101596.00
2018-10-03T20:44:22.715Z,101595.00
2018-10-03T20:46:52.364Z,101595.00
2018-10-03T20:49:22.699Z,101599.00
2018-10-03T20:51:51.148Z,101589.00
2018-10-03T20:54:19.985Z,101595.00
2018-10-03T20:56:49.682Z,101595.00
2018-10-03T20:59:19.134Z,101589.00
2018-10-03T21:01:53.353Z,101587.00
2018-10-03T21:04:24.468Z,101587.00
2018-10-03T21:06:55.573Z,101588.00
2018-10-03T21:09:28.045Z,101587.00
2018-10-03T21:11:56.671Z,101590.00
2018-10-03T21:14:26.162Z,101581.00
2018-10-03T21:19:30.516Z,101579.00
2018-10-03T21:21:59.184Z,101573.00
2018-10-03T21:24:27.710Z,101582.00
2018-10-03T21:29:34.399Z,101583.00
2018-10-03T21:32:03.090Z,101585.00
2018-10-03T21:34:32.165Z,101577.00
2018-10-03T21:37:00.544Z,101578.00
2018-10-03T21:39:29.889Z,101583.00
2018-10-03T21:41:59.509Z,101582.00
2018-10-03T21:44:28.525Z,101579.00
2018-10-03T21:46:56.898Z,101582.00
2018-10-03T21:49:25.220Z,101571.00
2018-10-03T21:51:53.803Z,101579.00
2018-10-03T21:54:22.160Z,101577.00
2018-10-03T21:56:52.012Z,101571.00
2018-10-03T21:59:21.481Z,101575.00
2018-10-03T22:01:51.599Z,101573.00
2018-10-03T22:04:20.054Z,101571.00
2018-10-03T22:06:48.411Z,101570.00
2018-10-03T22:09:17.279Z,101567.00
2018-10-03T22:11:47.044Z,101563.00
2018-10-03T22:14:15.372Z,101559.00
2018-10-03T22:16:44.130Z,101575.00
2018-10-03T22:19:13.878Z,101557.00
2018-10-03T22:21:42.399Z,101566.00
2018-10-03T22:24:11.383Z,101564.00
2018-10-03T22:26:41.813Z,101569.00
2018-10-03T22:29:12.488Z,101563.00
2018-10-03T22:31:42.251Z,101570.00
2018-10-03T22:34:10.680Z,101569.00
2018-10-03T22:36:39.682Z,101563.00
2018-10-03T22:39:10.199Z,101572.00
2018-10-03T22:41:38.999Z,101581.00
2018-10-03T22:44:07.724Z,101578.00
2018-10-03T22:46:36.612Z,101591.00
2018-10-03T22:49:06.784Z,101590.00
2018-10-03T22:51:35.068Z,101587.00
2018-10-03T22:54:04.472Z,101594.00
2018-10-03T22:56:33.266Z,101597.00
2018-10-03T22:59:02.362Z,101596.00
2018-10-03T23:01:30.693Z,101595.00
2018-10-03T23:03:59.783Z,101600.00
2018-10-03T23:06:28.459Z,101594.00
2018-10-03T23:08:56.789Z,101609.00
2018-10-03T23:11:25.147Z,101616.00
2018-10-03T23:13:53.670Z,101609.00
2018-10-03T23:16:21.960Z,101604.00
2018-10-03T23:18:52.096Z,101616.00
2018-10-03T23:21:20.988Z,101619.00
2018-10-03T23:23:50.391Z,101615.00
2018-10-03T23:26:18.832Z,101618.00
2018-10-03T23:28:47.105Z,101620.00
2018-10-03T23:31:16.459Z,101628.00
2018-10-03T23:33:44.706Z,101621.00
2018-10-03T23:36:12.931Z,101626.00
2018-10-03T23:38:41.144Z,101615.00
2018-10-03T23:41:09.413Z,101627.00
2018-10-03T23:43:37.648Z,101626.00
2018-10-03T23:46:05.941Z,101625.00
2018-10-03T23:48:34.298Z,101628.00
2018-10-03T23:51:02.614Z,101634.00
2018-10-03T23:53:30.874Z,101637.00
2018-10-03T23:55:59.161Z,101640.00
2018-10-03T23:58:27.437Z,101636.00
